Hamlet, Illinois
Current Conditions -  °F | °C
As of 12:52 AM on Saturday 01 Nov 2014 (Local Time) from KMLI Reporting Station
Clear Clear  
Wind Chill: 25°   Ceiling: Unl
Heat Index: 32°   Visibility: 10mi
Dew Point: 18°   Wind: 8mph
Humidity: 56%   Direction: 10°N
Pressure: 30.44"   Gusts: NA
Location:  41.1928°N, 90.7165°W
Report Text: KMLI 010552Z AUTO 01007KT 10SM CLR 00/M08 A3044 RMK AO2 SLP314 T00001078 10033 20000 400940000 50003 $
Loading
Personal Weather Stations






























Interactive Weather Map
Tropical Storm Tracking
New forecast layout! Learn more

10-Day Weather Forecast

Advertisements
Track Severe Weather on mobile